sensor_id;sensor_type;location;lat;lon;timestamp;pressure;altitude;pressure_sealevel;temperature;humidity
25855;BME280;13680;49.936;11.344;2023-02-16T00:00:28;97752.75;;;2.14;82.36
25855;BME280;13680;49.936;11.344;2023-02-16T00:02:54;97752.66;;;2.02;83.28
25855;BME280;13680;49.936;11.344;2023-02-16T00:05:27;97753.88;;;2.25;82.57
25855;BME280;13680;49.936;11.344;2023-02-16T00:07:54;97758.56;;;2.23;82.40
25855;BME280;13680;49.936;11.344;2023-02-16T00:10:20;97754.28;;;2.22;82.18
25855;BME280;13680;49.936;11.344;2023-02-16T00:12:45;97753.97;;;2.18;82.71
25855;BME280;13680;49.936;11.344;2023-02-16T00:15:29;97764.50;;;2.25;82.33
25855;BME280;13680;49.936;11.344;2023-02-16T00:17:57;97760.13;;;2.31;82.30
25855;BME280;13680;49.936;11.344;2023-02-16T00:20:23;97755.13;;;2.22;82.43
25855;BME280;13680;49.936;11.344;2023-02-16T00:22:49;97746.94;;;2.24;82.39
25855;BME280;13680;49.936;11.344;2023-02-16T00:25:14;97752.69;;;2.21;82.38
25855;BME280;13680;49.936;11.344;2023-02-16T00:27:39;97753.56;;;2.15;81.72
25855;BME280;13680;49.936;11.344;2023-02-16T00:30:16;97748.13;;;2.09;82.47
25855;BME280;13680;49.936;11.344;2023-02-16T00:32:42;97744.09;;;2.00;81.98
25855;BME280;13680;49.936;11.344;2023-02-16T00:35:13;97747.59;;;2.01;81.98
25855;BME280;13680;49.936;11.344;2023-02-16T00:37:39;97747.91;;;2.11;81.80
25855;BME280;13680;49.936;11.344;2023-02-16T00:40:04;97751.56;;;2.10;81.51
25855;BME280;13680;49.936;11.344;2023-02-16T00:42:31;97751.56;;;2.10;82.22
25855;BME280;13680;49.936;11.344;2023-02-16T00:44:58;97754.44;;;2.08;81.89
25855;BME280;13680;49.936;11.344;2023-02-16T00:47:35;97754.00;;;2.11;82.06
25855;BME280;13680;49.936;11.344;2023-02-16T00:50:03;97756.66;;;2.11;82.27
25855;BME280;13680;49.936;11.344;2023-02-16T00:52:33;97750.78;;;2.09;81.88
25855;BME280;13680;49.936;11.344;2023-02-16T00:55:04;97760.13;;;2.12;82.44
25855;BME280;13680;49.936;11.344;2023-02-16T00:57:33;97757.69;;;2.10;82.21
25855;BME280;13680;49.936;11.344;2023-02-16T01:00:12;97757.25;;;2.13;82.53
25855;BME280;13680;49.936;11.344;2023-02-16T01:02:40;97760.66;;;2.21;81.31
25855;BME280;13680;49.936;11.344;2023-02-16T01:05:05;97757.75;;;2.04;81.41
25855;BME280;13680;49.936;11.344;2023-02-16T01:07:31;97752.03;;;2.07;81.62
25855;BME280;13680;49.936;11.344;2023-02-16T01:10:17;97755.94;;;2.04;82.17
25855;BME280;13680;49.936;11.344;2023-02-16T01:13:01;97747.13;;;2.04;82.08
25855;BME280;13680;49.936;11.344;2023-02-16T01:15:27;97747.13;;;2.04;82.43
25855;BME280;13680;49.936;11.344;2023-02-16T01:17:52;97739.78;;;2.06;81.89
25855;BME280;13680;49.936;11.344;2023-02-16T01:20:21;97741.75;;;2.10;81.35
25855;BME280;13680;49.936;11.344;2023-02-16T01:22:46;97742.66;;;2.04;81.11
25855;BME280;13680;49.936;11.344;2023-02-16T01:25:13;97730.03;;;2.00;81.57
25855;BME280;13680;49.936;11.344;2023-02-16T01:27:39;97729.88;;;2.13;81.20
25855;BME280;13680;49.936;11.344;2023-02-16T01:30:07;97731.00;;;2.05;80.95
25855;BME280;13680;49.936;11.344;2023-02-16T01:32:32;97733.06;;;2.03;81.54
25855;BME280;13680;49.936;11.344;2023-02-16T01:34:58;97736.44;;;2.10;81.46
25855;BME280;13680;49.936;11.344;2023-02-16T01:37:23;97733.38;;;2.13;80.94
25855;BME280;13680;49.936;11.344;2023-02-16T01:39:49;97733.50;;;2.00;81.22
25855;BME280;13680;49.936;11.344;2023-02-16T01:42:30;97728.56;;;1.85;80.77
25855;BME280;13680;49.936;11.344;2023-02-16T01:45:04;97727.09;;;1.89;81.21
25855;BME280;13680;49.936;11.344;2023-02-16T01:47:50;97729.09;;;1.94;80.86
25855;BME280;13680;49.936;11.344;2023-02-16T01:50:20;97722.81;;;1.88;80.66
25855;BME280;13680;49.936;11.344;2023-02-16T01:52:55;97726.22;;;1.95;81.09
25855;BME280;13680;49.936;11.344;2023-02-16T01:55:35;97720.22;;;1.82;81.13
25855;BME280;13680;49.936;11.344;2023-02-16T01:58:11;97719.63;;;1.79;81.34
25855;BME280;13680;49.936;11.344;2023-02-16T02:03:22;97716.19;;;1.79;81.43
25855;BME280;13680;49.936;11.344;2023-02-16T02:06:09;97716.81;;;1.74;81.06
25855;BME280;13680;49.936;11.344;2023-02-16T02:08:41;97705.34;;;1.80;80.86
25855;BME280;13680;49.936;11.344;2023-02-16T02:13:46;97705.25;;;1.87;80.63
25855;BME280;13680;49.936;11.344;2023-02-16T02:16:16;97704.88;;;1.65;81.61
25855;BME280;13680;49.936;11.344;2023-02-16T02:18:42;97699.47;;;1.53;82.13
25855;BME280;13680;49.936;11.344;2023-02-16T02:32:50;97685.94;;;1.61;82.03
25855;BME280;13680;49.936;11.344;2023-02-16T02:35:35;97681.28;;;1.57;82.91
25855;BME280;13680;49.936;11.344;2023-02-16T02:38:28;97682.19;;;1.69;82.28
25855;BME280;13680;49.936;11.344;2023-02-16T02:41:25;97689.03;;;1.58;82.01
25855;BME280;13680;49.936;11.344;2023-02-16T02:44:16;97687.56;;;1.62;81.72
25855;BME280;13680;49.936;11.344;2023-02-16T02:46:42;97682.91;;;1.58;82.90
25855;BME280;13680;49.936;11.344;2023-02-16T02:49:08;97681.09;;;1.58;83.04
25855;BME280;13680;49.936;11.344;2023-02-16T02:51:33;97681.88;;;1.59;82.72
25855;BME280;13680;49.936;11.344;2023-02-16T02:54:24;97681.88;;;1.59;82.95
25855;BME280;13680;49.936;11.344;2023-02-16T02:57:20;97676.97;;;1.62;82.75
25855;BME280;13680;49.936;11.344;2023-02-16T03:00:22;97674.97;;;1.58;82.68
25855;BME280;13680;49.936;11.344;2023-02-16T03:08:28;97667.00;;;1.58;82.40
25855;BME280;13680;49.936;11.344;2023-02-16T03:13:49;97673.44;;;1.69;81.70
25855;BME280;13680;49.936;11.344;2023-02-16T03:16:27;97671.44;;;1.64;81.61
25855;BME280;13680;49.936;11.344;2023-02-16T03:18:56;97668.00;;;1.63;81.71
25855;BME280;13680;49.936;11.344;2023-02-16T03:21:41;97668.03;;;1.57;82.41
25855;BME280;13680;49.936;11.344;2023-02-16T03:24:28;97669.03;;;1.37;81.93
25855;BME280;13680;49.936;11.344;2023-02-16T03:27:16;97680.59;;;1.43;82.53
25855;BME280;13680;49.936;11.344;2023-02-16T03:30:04;97678.75;;;1.43;82.22
25855;BME280;13680;49.936;11.344;2023-02-16T03:32:31;97674.41;;;1.49;81.26
25855;BME280;13680;49.936;11.344;2023-02-16T03:34:57;97666.53;;;1.17;82.20
25855;BME280;13680;49.936;11.344;2023-02-16T03:37:22;97669.81;;;1.38;81.67
25855;BME280;13680;49.936;11.344;2023-02-16T03:39:48;97667.34;;;1.43;82.00
25855;BME280;13680;49.936;11.344;2023-02-16T03:42:32;97670.22;;;1.41;81.53
25855;BME280;13680;49.936;11.344;2023-02-16T03:44:57;97667.41;;;1.36;81.70
25855;BME280;13680;49.936;11.344;2023-02-16T03:47:23;97666.53;;;1.42;81.51
25855;BME280;13680;49.936;11.344;2023-02-16T03:49:48;97669.19;;;1.42;81.35
25855;BME280;13680;49.936;11.344;2023-02-16T03:52:13;97666.13;;;1.45;81.83
25855;BME280;13680;49.936;11.344;2023-02-16T03:54:39;97670.97;;;1.49;81.34
25855;BME280;13680;49.936;11.344;2023-02-16T03:57:04;97668.16;;;1.43;81.09
25855;BME280;13680;49.936;11.344;2023-02-16T03:59:29;97663.25;;;1.47;80.87
25855;BME280;13680;49.936;11.344;2023-02-16T04:01:54;97668.56;;;1.40;81.01
25855;BME280;13680;49.936;11.344;2023-02-16T04:04:20;97676.22;;;1.30;81.28
25855;BME280;13680;49.936;11.344;2023-02-16T04:06:45;97673.38;;;1.32;81.76
25855;BME280;13680;49.936;11.344;2023-02-16T04:09:10;97674.47;;;1.42;81.48
25855;BME280;13680;49.936;11.344;2023-02-16T04:11:35;97678.59;;;1.38;81.26
25855;BME280;13680;49.936;11.344;2023-02-16T04:14:19;97666.13;;;1.45;81.05
25855;BME280;13680;49.936;11.344;2023-02-16T04:16:44;97671.41;;;1.45;80.49
25855;BME280;13680;49.936;11.344;2023-02-16T04:19:10;97678.31;;;1.46;81.05
25855;BME280;13680;49.936;11.344;2023-02-16T04:21:35;97682.03;;;1.45;80.36
25855;BME280;13680;49.936;11.344;2023-02-16T04:24:00;97685.84;;;1.50;80.77
25855;BME280;13680;49.936;11.344;2023-02-16T04:26:26;97689.38;;;1.43;80.64
25855;BME280;13680;49.936;11.344;2023-02-16T04:28:52;97686.09;;;1.41;80.53
25855;BME280;13680;49.936;11.344;2023-02-16T04:31:17;97684.66;;;1.45;80.76
25855;BME280;13680;49.936;11.344;2023-02-16T04:33:43;97687.31;;;1.45;80.50
25855;BME280;13680;49.936;11.344;2023-02-16T04:36:08;97689.22;;;1.38;80.56
25855;BME280;13680;49.936;11.344;2023-02-16T04:38:34;97686.56;;;1.38;80.63
25855;BME280;13680;49.936;11.344;2023-02-16T04:40:59;97686.72;;;1.43;80.25
25855;BME280;13680;49.936;11.344;2023-02-16T04:43:24;97695.59;;;1.30;81.02
25855;BME280;13680;49.936;11.344;2023-02-16T04:45:50;97683.59;;;1.28;80.76
25855;BME280;13680;49.936;11.344;2023-02-16T04:48:15;97690.94;;;1.26;80.92
25855;BME280;13680;49.936;11.344;2023-02-16T04:50:41;97691.47;;;1.09;81.06
25855;BME280;13680;49.936;11.344;2023-02-16T04:53:06;97689.13;;;1.20;81.41
25855;BME280;13680;49.936;11.344;2023-02-16T04:55:32;97686.25;;;1.28;81.00
25855;BME280;13680;49.936;11.344;2023-02-16T04:57:57;97682.59;;;1.22;81.29
25855;BME280;13680;49.936;11.344;2023-02-16T05:00:22;97681.50;;;1.30;81.64
25855;BME280;13680;49.936;11.344;2023-02-16T05:02:48;97684.47;;;1.40;80.89
25855;BME280;13680;49.936;11.344;2023-02-16T05:05:13;97690.16;;;1.44;80.66
25855;BME280;13680;49.936;11.344;2023-02-16T05:07:38;97682.44;;;1.42;80.39
25855;BME280;13680;49.936;11.344;2023-02-16T05:10:04;97688.28;;;1.26;81.17
25855;BME280;13680;49.936;11.344;2023-02-16T05:12:30;97686.63;;;1.32;81.30
25855;BME280;13680;49.936;11.344;2023-02-16T05:15:14;97688.59;;;1.36;80.97
25855;BME280;13680;49.936;11.344;2023-02-16T05:17:40;97687.81;;;1.36;80.81
25855;BME280;13680;49.936;11.344;2023-02-16T05:20:05;97681.69;;;1.35;80.59
25855;BME280;13680;49.936;11.344;2023-02-16T05:22:31;97683.97;;;1.32;80.64
25855;BME280;13680;49.936;11.344;2023-02-16T05:24:59;97682.03;;;1.13;80.50
25855;BME280;13680;49.936;11.344;2023-02-16T05:27:26;97685.31;;;1.16;80.28
25855;BME280;13680;49.936;11.344;2023-02-16T05:29:52;97690.34;;;1.24;80.13
25855;BME280;13680;49.936;11.344;2023-02-16T05:32:18;97685.41;;;1.02;80.66
25855;BME280;13680;49.936;11.344;2023-02-16T05:34:44;97695.06;;;0.90;80.87
25855;BME280;13680;49.936;11.344;2023-02-16T05:37:10;97693.38;;;1.02;80.33
25855;BME280;13680;49.936;11.344;2023-02-16T05:39:36;97698.22;;;1.05;80.47
25855;BME280;13680;49.936;11.344;2023-02-16T05:42:01;97697.03;;;1.01;80.09
25855;BME280;13680;49.936;11.344;2023-02-16T05:44:27;97692.66;;;1.13;79.76
25855;BME280;13680;49.936;11.344;2023-02-16T05:46:52;97691.63;;;1.14;80.01
25855;BME280;13680;49.936;11.344;2023-02-16T05:49:17;97703.97;;;1.02;79.83
25855;BME280;13680;49.936;11.344;2023-02-16T05:51:43;97714.91;;;1.06;79.79
25855;BME280;13680;49.936;11.344;2023-02-16T05:54:08;97714.56;;;1.02;79.94
25855;BME280;13680;49.936;11.344;2023-02-16T05:56:46;97710.69;;;0.98;79.38
25855;BME280;13680;49.936;11.344;2023-02-16T05:59:13;97711.06;;;1.02;79.09
25855;BME280;13680;49.936;11.344;2023-02-16T06:01:38;97711.34;;;0.93;79.63
25855;BME280;13680;49.936;11.344;2023-02-16T06:04:10;97709.31;;;0.89;79.49
25855;BME280;13680;49.936;11.344;2023-02-16T06:06:37;97697.06;;;0.94;79.55
25855;BME280;13680;49.936;11.344;2023-02-16T06:09:04;97710.91;;;0.96;79.45
25855;BME280;13680;49.936;11.344;2023-02-16T06:11:30;97716.38;;;1.02;79.47
25855;BME280;13680;49.936;11.344;2023-02-16T06:16:33;97714.19;;;0.92;78.93
25855;BME280;13680;49.936;11.344;2023-02-16T06:18:59;97716.66;;;0.87;79.68
25855;BME280;13680;49.936;11.344;2023-02-16T06:21:25;97726.88;;;0.83;79.56
25855;BME280;13680;49.936;11.344;2023-02-16T06:23:51;97721.41;;;0.78;79.72
25855;BME280;13680;49.936;11.344;2023-02-16T06:26:18;97725.09;;;0.77;79.49
25855;BME280;13680;49.936;11.344;2023-02-16T06:28:43;97722.03;;;0.73;79.19
25855;BME280;13680;49.936;11.344;2023-02-16T06:31:09;97725.31;;;0.69;79.34
25855;BME280;13680;49.936;11.344;2023-02-16T06:33:34;97721.66;;;0.70;79.47
25855;BME280;13680;49.936;11.344;2023-02-16T06:35:59;97722.94;;;0.60;79.97
25855;BME280;13680;49.936;11.344;2023-02-16T06:38:25;97720.41;;;0.72;79.53
25855;BME280;13680;49.936;11.344;2023-02-16T06:40:51;97720.63;;;0.71;79.43
25855;BME280;13680;49.936;11.344;2023-02-16T06:43:17;97721.03;;;0.68;79.41
25855;BME280;13680;49.936;11.344;2023-02-16T06:45:42;97718.16;;;0.76;78.63
25855;BME280;13680;49.936;11.344;2023-02-16T06:48:09;97725.31;;;0.75;78.82
25855;BME280;13680;49.936;11.344;2023-02-16T06:50:34;97725.50;;;0.74;78.51
25855;BME280;13680;49.936;11.344;2023-02-16T06:52:59;97727.56;;;0.72;78.99
25855;BME280;13680;49.936;11.344;2023-02-16T06:55:25;97723.28;;;0.71;78.57
25855;BME280;13680;49.936;11.344;2023-02-16T06:57:50;97737.25;;;0.85;78.00
25855;BME280;13680;49.936;11.344;2023-02-16T07:00:16;97738.06;;;0.85;78.04
25855;BME280;13680;49.936;11.344;2023-02-16T07:02:41;97739.06;;;0.91;77.69
25855;BME280;13680;49.936;11.344;2023-02-16T07:05:08;97733.97;;;0.89;77.64
25855;BME280;13680;49.936;11.344;2023-02-16T07:07:33;97733.38;;;0.87;77.99
25855;BME280;13680;49.936;11.344;2023-02-16T07:09:58;97730.06;;;0.92;77.84
25855;BME280;13680;49.936;11.344;2023-02-16T07:12:24;97740.66;;;0.92;77.81
25855;BME280;13680;49.936;11.344;2023-02-16T07:14:49;97731.53;;;0.88;77.39
25855;BME280;13680;49.936;11.344;2023-02-16T07:17:14;97731.19;;;0.77;77.68
25855;BME280;13680;49.936;11.344;2023-02-16T07:19:40;97735.75;;;0.95;77.33
25855;BME280;13680;49.936;11.344;2023-02-16T07:22:06;97721.94;;;0.87;77.78
25855;BME280;13680;49.936;11.344;2023-02-16T07:24:31;97716.97;;;1.04;77.98
25855;BME280;13680;49.936;11.344;2023-02-16T07:26:56;97713.66;;;1.15;77.53
25855;BME280;13680;49.936;11.344;2023-02-16T07:29:22;97721.19;;;1.11;77.30
25855;BME280;13680;49.936;11.344;2023-02-16T07:31:47;97720.75;;;1.14;76.61
25855;BME280;13680;49.936;11.344;2023-02-16T07:34:13;97709.47;;;1.26;76.93
25855;BME280;13680;49.936;11.344;2023-02-16T07:36:38;97711.34;;;1.19;77.33
25855;BME280;13680;49.936;11.344;2023-02-16T07:39:03;97708.50;;;1.20;76.66
25855;BME280;13680;49.936;11.344;2023-02-16T07:41:29;97710.00;;;1.09;77.36
25855;BME280;13680;49.936;11.344;2023-02-16T07:43:54;97708.69;;;1.19;77.61
25855;BME280;13680;49.936;11.344;2023-02-16T07:46:19;97711.34;;;1.19;77.07
25855;BME280;13680;49.936;11.344;2023-02-16T07:48:48;97707.59;;;1.33;77.31
25855;BME280;13680;49.936;11.344;2023-02-16T07:51:25;97708.53;;;1.45;77.23
25855;BME280;13680;49.936;11.344;2023-02-16T07:53:51;97716.50;;;1.39;77.59
25855;BME280;13680;49.936;11.344;2023-02-16T07:56:22;97714.00;;;1.19;78.48
25855;BME280;13680;49.936;11.344;2023-02-16T07:58:50;97717.91;;;1.41;77.94
25855;BME280;13680;49.936;11.344;2023-02-16T08:01:16;97709.19;;;1.59;77.53
25855;BME280;13680;49.936;11.344;2023-02-16T08:03:41;97719.75;;;1.66;76.82
25855;BME280;13680;49.936;11.344;2023-02-16T08:06:07;97719.63;;;1.79;76.69
25855;BME280;13680;49.936;11.344;2023-02-16T08:08:34;97722.19;;;1.68;76.98
25855;BME280;13680;49.936;11.344;2023-02-16T08:10:59;97716.50;;;1.64;77.06
25855;BME280;13680;49.936;11.344;2023-02-16T08:13:25;97713.22;;;1.69;77.86
25855;BME280;13680;49.936;11.344;2023-02-16T08:15:50;97704.97;;;1.77;77.76
25855;BME280;13680;49.936;11.344;2023-02-16T08:18:15;97713.75;;;1.77;77.81
25855;BME280;13680;49.936;11.344;2023-02-16T08:20:41;97719.19;;;1.83;77.29
25855;BME280;13680;49.936;11.344;2023-02-16T08:23:06;97727.00;;;1.77;77.28
25855;BME280;13680;49.936;11.344;2023-02-16T08:25:34;97724.38;;;1.71;77.52
25855;BME280;13680;49.936;11.344;2023-02-16T08:28:01;97726.44;;;1.94;77.70
25855;BME280;13680;49.936;11.344;2023-02-16T08:30:26;97729.59;;;2.03;76.65
25855;BME280;13680;49.936;11.344;2023-02-16T08:32:51;97737.06;;;2.31;77.01
25855;BME280;13680;49.936;11.344;2023-02-16T08:35:17;97741.56;;;2.49;75.76
25855;BME280;13680;49.936;11.344;2023-02-16T08:37:43;97732.25;;;2.58;75.95
25855;BME280;13680;49.936;11.344;2023-02-16T08:40:08;97744.22;;;2.49;75.38
25855;BME280;13680;49.936;11.344;2023-02-16T08:42:35;97741.13;;;2.34;76.17
25855;BME280;13680;49.936;11.344;2023-02-16T08:45:01;97732.47;;;2.57;75.62
25855;BME280;13680;49.936;11.344;2023-02-16T08:47:27;97736.00;;;2.69;75.69
25855;BME280;13680;49.936;11.344;2023-02-16T08:49:54;97749.38;;;2.44;75.39
25855;BME280;13680;49.936;11.344;2023-02-16T08:52:19;97737.97;;;2.74;74.95
25855;BME280;13680;49.936;11.344;2023-02-16T08:54:45;97749.50;;;2.68;75.70
25855;BME280;13680;49.936;11.344;2023-02-16T08:57:10;97748.09;;;2.95;74.93
25855;BME280;13680;49.936;11.344;2023-02-16T08:59:35;97750.06;;;2.88;74.84
25855;BME280;13680;49.936;11.344;2023-02-16T09:02:01;97757.59;;;3.03;74.49
25855;BME280;13680;49.936;11.344;2023-02-16T09:04:27;97763.00;;;3.27;73.65
25855;BME280;13680;49.936;11.344;2023-02-16T09:06:53;97764.56;;;3.47;72.98
25855;BME280;13680;49.936;11.344;2023-02-16T09:09:20;97757.16;;;3.49;73.45
25855;BME280;13680;49.936;11.344;2023-02-16T09:11:47;97759.97;;;3.77;72.03
25855;BME280;13680;49.936;11.344;2023-02-16T09:14:12;97757.44;;;4.06;71.56
25855;BME280;13680;49.936;11.344;2023-02-16T09:16:39;97755.06;;;4.46;71.20
25855;BME280;13680;49.936;11.344;2023-02-16T09:19:14;97758.28;;;4.48;70.59
25855;BME280;13680;49.936;11.344;2023-02-16T09:21:39;97762.78;;;4.71;70.53
25855;BME280;13680;49.936;11.344;2023-02-16T09:24:06;97762.69;;;4.95;70.89
25855;BME280;13680;49.936;11.344;2023-02-16T09:26:35;97767.75;;;5.08;70.34
25855;BME280;13680;49.936;11.344;2023-02-16T09:29:04;97754.16;;;5.38;69.15
25855;BME280;13680;49.936;11.344;2023-02-16T09:31:34;97759.78;;;5.42;69.12
25855;BME280;13680;49.936;11.344;2023-02-16T09:34:18;97763.13;;;5.66;68.64
25855;BME280;13680;49.936;11.344;2023-02-16T09:36:44;97754.88;;;6.19;67.76
25855;BME280;13680;49.936;11.344;2023-02-16T09:39:11;97755.53;;;6.48;66.02
25855;BME280;13680;49.936;11.344;2023-02-16T09:47:05;97757.13;;;6.71;66.52
25855;BME280;13680;49.936;11.344;2023-02-16T09:49:38;97756.56;;;7.19;64.99
25855;BME280;13680;49.936;11.344;2023-02-16T09:54:46;97749.19;;;7.04;64.28
25855;BME280;13680;49.936;11.344;2023-02-16T09:57:34;97746.00;;;7.34;63.73
25855;BME280;13680;49.936;11.344;2023-02-16T10:00:15;97750.88;;;7.70;62.33
25855;BME280;13680;49.936;11.344;2023-02-16T10:08:54;97743.91;;;7.69;61.50
25855;BME280;13680;49.936;11.344;2023-02-16T10:14:06;97731.22;;;8.40;60.30
25855;BME280;13680;49.936;11.344;2023-02-16T10:16:39;97731.97;;;8.30;58.48
25855;BME280;13680;49.936;11.344;2023-02-16T10:22:27;97731.72;;;9.00;58.11
25855;BME280;13680;49.936;11.344;2023-02-16T10:25:07;97729.66;;;9.33;56.47
25855;BME280;13680;49.936;11.344;2023-02-16T10:27:47;97725.06;;;9.54;56.18
25855;BME280;13680;49.936;11.344;2023-02-16T10:30:15;97724.47;;;9.00;57.14
25855;BME280;13680;49.936;11.344;2023-02-16T10:35:44;97716.72;;;9.04;57.70
25855;BME280;13680;49.936;11.344;2023-02-16T10:38:53;97725.63;;;9.46;56.58
25855;BME280;13680;49.936;11.344;2023-02-16T10:41:32;97722.38;;;9.13;58.03
25855;BME280;13680;49.936;11.344;2023-02-16T10:44:11;97720.19;;;10.08;55.34
25855;BME280;13680;49.936;11.344;2023-02-16T10:46:40;97721.84;;;9.16;57.71
25855;BME280;13680;49.936;11.344;2023-02-16T10:49:10;97717.03;;;9.39;57.09
25855;BME280;13680;49.936;11.344;2023-02-16T10:51:36;97717.50;;;10.03;56.30
25855;BME280;13680;49.936;11.344;2023-02-16T10:54:24;97712.13;;;10.08;56.60
25855;BME280;13680;49.936;11.344;2023-02-16T10:56:52;97709.72;;;10.11;55.34
25855;BME280;13680;49.936;11.344;2023-02-16T10:59:30;97695.13;;;10.33;54.71
25855;BME280;13680;49.936;11.344;2023-02-16T11:01:59;97691.25;;;10.65;56.14
25855;BME280;13680;49.936;11.344;2023-02-16T11:04:36;97696.81;;;11.29;53.99
25855;BME280;13680;49.936;11.344;2023-02-16T11:09:28;97689.75;;;10.99;54.31
25855;BME280;13680;49.936;11.344;2023-02-16T11:11:53;97688.53;;;11.84;51.58
25855;BME280;13680;49.936;11.344;2023-02-16T11:14:28;97684.34;;;12.02;51.38
25855;BME280;13680;49.936;11.344;2023-02-16T11:17:06;97673.09;;;12.19;50.62
25855;BME280;13680;49.936;11.344;2023-02-16T11:19:33;97663.06;;;12.68;50.35
25855;BME280;13680;49.936;11.344;2023-02-16T11:21:59;97664.50;;;13.18;49.66
25855;BME280;13680;49.936;11.344;2023-02-16T11:27:27;97658.03;;;13.00;47.91
25855;BME280;13680;49.936;11.344;2023-02-16T11:30:16;97660.47;;;13.34;48.56
25855;BME280;13680;49.936;11.344;2023-02-16T11:32:47;97664.84;;;13.49;48.85
25855;BME280;13680;49.936;11.344;2023-02-16T11:35:13;97666.47;;;13.50;47.12
25855;BME280;13680;49.936;11.344;2023-02-16T11:37:39;97659.25;;;13.07;48.08
25855;BME280;13680;49.936;11.344;2023-02-16T11:40:49;97659.94;;;12.80;49.92
25855;BME280;13680;49.936;11.344;2023-02-16T11:43:04;97646.44;;;12.61;49.71
25855;BME280;13680;49.936;11.344;2023-02-16T11:45:32;97660.38;;;12.87;48.94
25855;BME280;13680;49.936;11.344;2023-02-16T11:48:05;97658.88;;;13.33;48.46
25855;BME280;13680;49.936;11.344;2023-02-16T11:50:37;97648.50;;;13.21;48.85
25855;BME280;13680;49.936;11.344;2023-02-16T11:55:37;97645.91;;;12.78;50.39
25855;BME280;13680;49.936;11.344;2023-02-16T12:09:12;97621.50;;;12.07;51.36
25855;BME280;13680;49.936;11.344;2023-02-16T12:12:13;97621.34;;;12.41;51.60
25855;BME280;13680;49.936;11.344;2023-02-16T12:14:51;97619.47;;;13.65;48.04
25855;BME280;13680;49.936;11.344;2023-02-16T12:17:25;97626.44;;;13.66;47.57
25855;BME280;13680;49.936;11.344;2023-02-16T12:22:48;97629.38;;;12.66;48.39
25855;BME280;13680;49.936;11.344;2023-02-16T12:25:36;97623.03;;;13.27;47.14
25855;BME280;13680;49.936;11.344;2023-02-16T12:28:20;97615.53;;;13.24;47.00
25855;BME280;13680;49.936;11.344;2023-02-16T12:37:03;97612.44;;;13.64;45.40
25855;BME280;13680;49.936;11.344;2023-02-16T12:45:00;97600.28;;;14.59;43.63
25855;BME280;13680;49.936;11.344;2023-02-16T12:47:31;97600.47;;;14.99;42.98
25855;BME280;13680;49.936;11.344;2023-02-16T12:50:04;97600.94;;;13.25;46.01
25855;BME280;13680;49.936;11.344;2023-02-16T12:52:41;97598.66;;;14.21;44.19
25855;BME280;13680;49.936;11.344;2023-02-16T12:55:25;97598.06;;;14.61;43.42
25855;BME280;13680;49.936;11.344;2023-02-16T12:57:58;97594.94;;;15.59;41.98
25855;BME280;13680;49.936;11.344;2023-02-16T13:00:43;97591.63;;;16.60;40.24
25855;BME280;13680;49.936;11.344;2023-02-16T13:03:49;97588.00;;;15.75;40.42
25855;BME280;13680;49.936;11.344;2023-02-16T13:11:37;97578.72;;;14.68;42.93
25855;BME280;13680;49.936;11.344;2023-02-16T13:14:12;97587.41;;;14.28;43.91
25855;BME280;13680;49.936;11.344;2023-02-16T13:17:00;97583.72;;;14.75;43.41
25855;BME280;13680;49.936;11.344;2023-02-16T13:19:27;97588.50;;;14.13;44.40
25855;BME280;13680;49.936;11.344;2023-02-16T13:25:01;97570.16;;;14.38;44.25
25855;BME280;13680;49.936;11.344;2023-02-16T13:27:44;97574.44;;;15.12;42.32
25855;BME280;13680;49.936;11.344;2023-02-16T13:36:24;97577.50;;;14.74;43.53
25855;BME280;13680;49.936;11.344;2023-02-16T13:44:50;97558.91;;;15.98;40.94
25855;BME280;13680;49.936;11.344;2023-02-16T13:47:26;97573.06;;;15.46;40.95
25855;BME280;13680;49.936;11.344;2023-02-16T13:50:03;97558.03;;;15.40;41.21
25855;BME280;13680;49.936;11.344;2023-02-16T13:52:40;97568.66;;;15.59;40.80
25855;BME280;13680;49.936;11.344;2023-02-16T13:55:32;97550.16;;;16.01;40.48
25855;BME280;13680;49.936;11.344;2023-02-16T14:00:47;97564.25;;;16.30;39.47
25855;BME280;13680;49.936;11.344;2023-02-16T14:05:51;97556.41;;;14.48;43.32
25855;BME280;13680;49.936;11.344;2023-02-16T14:08:22;97571.91;;;15.47;41.62
25855;BME280;13680;49.936;11.344;2023-02-16T14:13:26;97575.72;;;15.78;40.35
25855;BME280;13680;49.936;11.344;2023-02-16T14:15:54;97573.72;;;15.52;41.29
25855;BME280;13680;49.936;11.344;2023-02-16T14:18:31;97573.75;;;15.61;40.66
25855;BME280;13680;49.936;11.344;2023-02-16T14:21:04;97571.91;;;15.47;41.44
25855;BME280;13680;49.936;11.344;2023-02-16T14:23:30;97574.13;;;14.54;43.05
25855;BME280;13680;49.936;11.344;2023-02-16T14:26:06;97576.44;;;13.69;45.04
25855;BME280;13680;49.936;11.344;2023-02-16T14:31:12;97575.59;;;12.88;47.57
25855;BME280;13680;49.936;11.344;2023-02-16T14:33:53;97570.94;;;12.75;47.21
25855;BME280;13680;49.936;11.344;2023-02-16T14:36:24;97565.91;;;13.20;46.75
25855;BME280;13680;49.936;11.344;2023-02-16T14:38:53;97574.81;;;13.21;46.75
25855;BME280;13680;49.936;11.344;2023-02-16T14:43:52;97570.06;;;13.46;46.38
25855;BME280;13680;49.936;11.344;2023-02-16T14:52:17;97575.00;;;13.24;47.00
25855;BME280;13680;49.936;11.344;2023-02-16T14:57:30;97572.50;;;13.14;47.81
25855;BME280;13680;49.936;11.344;2023-02-16T15:00:02;97577.06;;;12.61;48.44
25855;BME280;13680;49.936;11.344;2023-02-16T15:02:33;97571.09;;;12.65;48.60
25855;BME280;13680;49.936;11.344;2023-02-16T15:05:19;97573.03;;;12.78;48.47
25855;BME280;13680;49.936;11.344;2023-02-16T15:07:48;97564.75;;;12.74;48.93
25855;BME280;13680;49.936;11.344;2023-02-16T15:10:18;97565.09;;;12.49;49.98
25855;BME280;13680;49.936;11.344;2023-02-16T15:12:46;97559.00;;;12.43;50.72
25855;BME280;13680;49.936;11.344;2023-02-16T15:18:02;97557.16;;;12.19;51.73
25855;BME280;13680;49.936;11.344;2023-02-16T15:20:36;97553.66;;;12.19;51.41
25855;BME280;13680;49.936;11.344;2023-02-16T15:23:06;97551.75;;;12.19;51.67